Gilman, IA (50106)

11:07 AM CDT on July 30, 2016 (GMT -0500)
Grinnell Weather.com | | Change Station

Elev 1014 ft 41.75 °N, 92.70 °W | Updated 15 seconds ago

Overcast
Overcast
71.2 °F
Feels Like 71.2 °F
N
4.2
Wind Variable Wind from NNW
Gusts 4.6 mph

Today
High -- | Low -- °F
--% Chance of Precip.
Yesterday
High -- | Low -- °F
Precip. -- in
Pressure 30.04 in
Visibility 10.0 miles
Clouds Scattered Clouds 1100 ft
Scattered Clouds 2100 ft
Overcast 6000 ft
Dew Point 68 °F
Humidity 91%
Rainfall 0.00 in
Snow Depth Not available.
6:03 AM 8:31 PM
Waning Crescent, 12% visible
METAR KGGI 301555Z AUTO 00000KT 10SM SCT011 SCT021 OVC060 22/19 A3004 RMK AO2 T02160185
Pressure 30.04 in
Visibility 10.0 miles
Clouds Scattered Clouds 1100 ft
Scattered Clouds 2100 ft
Overcast 6000 ft
Dew Point 68 °F
Humidity 91%
Rainfall 0.00 in
Snow Depth Not available.
6:03 AM 8:31 PM
Waning Crescent, 12% visible
METAR KGGI 301555Z AUTO 00000KT 10SM SCT011 SCT021 OVC060 22/19 A3004 RMK AO2 T02160185

10-Day Weather Forecast

Almanac

Astronomy

Jul. 30, 2016 Rise Set
Actual Time
Civil Twilight
Nautical Twilight
Astronomical Twilight
Moon
Length of Visible Light
Length of Day
Tomorrow will be .
, % of the Moon is Illuminated

Today's Extremes

State Highs State Lows

Community

WunderPhotos

Upload Photos

1,928,592 photos uploaded!

WunderBlog® & News

Nearby

Air Quality

  Air Quality AQ Index Pollutant
Not available.

Snow Depth

Station Depth Elevation

Earthquake Activity

City Distance Mag. Time & Date
Minimum magnitude displayed is 2.5.

Coastal Water Temperatures

Place Temperature

Stations

Nearby Weather Stations

Station Location Temp. Windchill Dew Point Humidity Wind Precip. Elev Updated Type
                   

Watches & Warnings

There are currently no watches in effect.